Time;durP1;ratioP1;P1;durP2;ratioP2;P2;SDS_P1;SDS_P2;PMS_P1;PMS_P2;Temp;Humidity;BMP_temperature;BMP_pressure;BME280_temperature;BME280_humidity;BME280_pressure;Samples;Min_cycle;Max_cycle;Signal;HPM_P1;HPM_P2
2022/03/08 00:01:03;;;;;;;56.95;29.48;;;1.80;99.90;;;;;;5095660;28;20491;-93
2022/03/08 00:03:29;;;;;;;47.80;28.83;;;1.80;99.90;;;;;;5093332;28;20665;-92
2022/03/08 00:05:55;;;;;;;50.07;28.80;;;1.80;99.90;;;;;;5093102;28;20279;-91
2022/03/08 00:08:22;;;;;;;50.28;27.13;;;1.70;99.90;;;;;;5093460;28;20464;-92
2022/03/08 00:10:48;;;;;;;55.40;30.23;;;1.70;99.90;;;;;;5106136;28;20207;-92
2022/03/08 00:13:14;;;;;;;47.33;27.67;;;1.70;99.90;;;;;;5096642;28;20224;-92
2022/03/08 00:15:41;;;;;;;45.85;27.30;;;1.70;99.90;;;;;;5093115;28;20202;-92
2022/03/08 00:18:08;;;;;;;54.08;28.00;;;1.80;99.90;;;;;;5093078;28;20267;-93
2022/03/08 00:20:34;;;;;;;51.85;28.52;;;1.70;99.90;;;;;;5092913;28;20203;-92
2022/03/08 00:23:00;;;;;;;46.67;28.20;;;1.80;99.90;;;;;;5103701;27;20184;-92
2022/03/08 00:25:26;;;;;;;52.47;27.73;;;1.70;99.90;;;;;;5103592;28;20200;-92
2022/03/08 00:27:53;;;;;;;47.47;28.95;;;1.70;99.90;;;;;;5096587;28;20186;-92
2022/03/08 00:30:26;;;;;;;51.28;27.67;;;1.70;99.90;;;;;;5097142;28;20192;-92
2022/03/08 00:32:53;;;;;;;44.88;26.67;;;1.80;99.90;;;;;;5096387;28;20656;-92
2022/03/08 00:35:20;;;;;;;49.75;26.92;;;1.70;99.90;;;;;;5110795;28;20244;-91
2022/03/08 00:37:51;;;;;;;49.10;26.92;;;1.70;99.90;;;;;;5106488;28;20188;-91
2022/03/08 00:40:19;;;;;;;45.60;25.45;;;1.70;99.90;;;;;;5098844;28;20200;-91
2022/03/08 00:42:46;;;;;;;45.67;28.65;;;1.80;99.90;;;;;;5096665;28;20180;-92
2022/03/08 00:45:12;;;;;;;47.22;28.40;;;1.80;99.90;;;;;;5097015;28;20704;-92
2022/03/08 00:47:39;;;;;;;52.97;26.65;;;1.80;99.90;;;;;;5096782;28;20273;-93
2022/03/08 00:50:10;;;;;;;52.58;27.90;;;1.70;99.90;;;;;;5097066;28;20197;-93
2022/03/08 00:52:36;;;;;;;52.90;27.00;;;1.70;99.90;;;;;;5104624;28;20204;-91
2022/03/08 00:55:03;;;;;;;46.58;28.25;;;1.70;99.90;;;;;;5101932;28;20209;-91
2022/03/08 00:57:29;;;;;;;51.22;26.55;;;1.70;99.90;;;;;;5096247;28;20195;-93
2022/03/08 00:59:56;;;;;;;48.87;26.43;;;1.70;99.90;;;;;;5099838;28;20689;-91
2022/03/08 01:02:22;;;;;;;49.17;26.48;;;1.70;99.90;;;;;;5096735;28;20637;-92
2022/03/08 01:04:47;;;;;;;52.70;27.73;;;1.70;99.90;;;;;;5100962;28;20222;-91
2022/03/08 01:07:14;;;;;;;55.97;29.40;;;1.60;99.90;;;;;;5098559;28;20468;-92
2022/03/08 01:09:40;;;;;;;49.92;27.85;;;1.60;99.90;;;;;;5096369;28;20224;-90
2022/03/08 01:12:07;;;;;;;50.90;27.55;;;1.60;99.90;;;;;;5096015;28;20216;-90
2022/03/08 01:14:34;;;;;;;49.47;27.00;;;1.60;99.90;;;;;;5096180;28;20222;-93
2022/03/08 01:17:02;;;;;;;50.25;27.40;;;1.60;99.90;;;;;;5096822;28;20184;-92
2022/03/08 01:19:36;;;;;;;50.13;26.98;;;1.60;99.90;;;;;;5109929;28;20218;-92
2022/03/08 01:22:02;;;;;;;55.53;28.30;;;1.60;99.90;;;;;;5098069;28;20185;-91
2022/03/08 01:24:29;;;;;;;50.28;27.35;;;1.60;99.90;;;;;;5096319;28;20241;-92
2022/03/08 01:26:56;;;;;;;48.88;27.83;;;1.50;99.90;;;;;;5096039;28;20180;-92
2022/03/08 01:29:23;;;;;;;51.65;27.02;;;1.50;99.90;;;;;;5096126;28;20187;-91
2022/03/08 01:31:49;;;;;;;47.60;27.35;;;1.50;99.90;;;;;;5096121;28;20221;-92
2022/03/08 01:34:15;;;;;;;55.92;28.58;;;1.50;99.90;;;;;;5096826;28;20184;-92
2022/03/08 01:36:41;;;;;;;53.75;28.60;;;1.50;99.90;;;;;;5109595;28;20176;-92
2022/03/08 01:39:08;;;;;;;48.67;27.20;;;1.50;99.90;;;;;;5097796;28;20177;-91
2022/03/08 01:41:34;;;;;;;50.67;28.40;;;1.50;99.90;;;;;;5095732;28;20180;-92
2022/03/08 01:44:00;;;;;;;49.70;29.17;;;1.50;99.90;;;;;;5095567;28;20212;-92
2022/03/08 01:46:26;;;;;;;47.78;27.65;;;1.50;99.90;;;;;;5095848;28;20517;-92
2022/03/08 01:48:52;;;;;;;53.25;28.77;;;1.50;99.90;;;;;;5096102;28;20184;-91
2022/03/08 01:51:19;;;;;;;55.65;27.40;;;1.50;99.90;;;;;;5106035;28;20253;-92
2022/03/08 01:53:46;;;;;;;52.08;27.83;;;1.50;99.90;;;;;;5095641;28;20263;-91
2022/03/08 01:56:12;;;;;;;49.30;26.70;;;1.50;99.90;;;;;;5094828;28;20201;-92
2022/03/08 01:58:39;;;;;;;55.15;28.77;;;1.40;99.90;;;;;;5100016;28;20191;-92
2022/03/08 02:01:06;;;;;;;47.47;26.98;;;1.40;99.90;;;;;;5095131;28;20258;-93
2022/03/08 02:03:33;;;;;;;54.15;27.38;;;1.50;99.90;;;;;;5094881;28;20184;-92
2022/03/08 02:05:59;;;;;;;51.30;28.52;;;1.50;99.90;;;;;;5107995;28;20216;-91
2022/03/08 02:08:26;;;;;;;51.53;27.00;;;1.50;99.90;;;;;;5095320;28;20192;-92
2022/03/08 02:10:53;;;;;;;50.47;27.90;;;1.50;99.90;;;;;;5095641;28;20207;-91
2022/03/08 02:13:19;;;;;;;56.88;28.52;;;1.50;99.90;;;;;;5095412;28;20221;-92
2022/03/08 02:15:49;;;;;;;48.13;27.90;;;1.50;99.90;;;;;;5094714;28;20193;-91
2022/03/08 02:18:16;;;;;;;51.70;27.23;;;1.50;99.90;;;;;;5097228;28;20279;-92
2022/03/08 02:20:42;;;;;;;50.75;26.92;;;1.50;99.90;;;;;;5106179;28;20219;-92
2022/03/08 02:23:09;;;;;;;56.85;28.73;;;1.50;99.90;;;;;;5095370;28;20230;-92
2022/03/08 02:25:35;;;;;;;49.33;28.60;;;1.50;99.90;;;;;;5094889;28;20258;-92
2022/03/08 02:28:01;;;;;;;49.05;28.35;;;1.50;99.90;;;;;;5094927;28;20184;-91
2022/03/08 02:30:27;;;;;;;46.97;25.85;;;1.50;99.90;;;;;;5094873;28;20626;-92
2022/03/08 02:32:57;;;;;;;52.97;26.10;;;1.60;99.90;;;;;;5099812;28;20248;-92
2022/03/08 02:35:26;;;;;;;52.05;28.58;;;1.60;99.90;;;;;;5096996;28;20470;-92
2022/03/08 02:37:55;;;;;;;49.92;26.83;;;1.60;99.90;;;;;;5094061;28;20214;-92
2022/03/08 02:40:24;;;;;;;44.53;26.30;;;1.60;99.90;;;;;;5094854;28;20606;-91
2022/03/08 02:42:51;;;;;;;52.13;27.98;;;1.60;99.90;;;;;;5094369;28;20187;-91
2022/03/08 02:45:17;;;;;;;49.35;28.98;;;1.50;99.90;;;;;;5093920;28;20192;-92
2022/03/08 02:47:44;;;;;;;47.97;27.55;;;1.60;99.90;;;;;;5094478;28;20232;-93
2022/03/08 02:50:12;;;;;;;52.17;27.42;;;1.50;99.90;;;;;;5103890;28;20204;-92
2022/03/08 02:52:40;;;;;;;54.78;28.85;;;1.50;99.90;;;;;;5094127;28;20212;-91
2022/03/08 02:55:07;;;;;;;49.35;27.23;;;1.50;99.90;;;;;;5096034;28;20192;-91
2022/03/08 02:57:33;;;;;;;50.60;28.05;;;1.50;99.90;;;;;;5094470;28;20186;-93
2022/03/08 02:59:59;;;;;;;53.63;29.73;;;1.50;99.90;;;;;;5093901;28;20531;-92
2022/03/08 03:02:25;;;;;;;47.27;27.67;;;1.50;99.90;;;;;;5093973;28;20187;-92
2022/03/08 03:04:51;;;;;;;50.30;28.83;;;1.50;99.90;;;;;;5107996;28;20406;-91
2022/03/08 03:07:17;;;;;;;52.50;28.73;;;1.50;99.90;;;;;;5093719;28;20449;-93
2022/03/08 03:09:43;;;;;;;49.92;27.30;;;1.50;99.90;;;;;;5093998;28;20404;-93
2022/03/08 03:12:09;;;;;;;51.37;30.37;;;1.50;99.90;;;;;;5093945;28;20281;-91
2022/03/08 03:14:35;;;;;;;54.70;29.05;;;1.50;99.90;;;;;;5096351;28;20433;-90
2022/03/08 03:17:01;;;;;;;52.50;27.60;;;1.50;99.90;;;;;;5093977;28;20191;-91
2022/03/08 03:19:27;;;;;;;48.40;27.60;;;1.50;99.90;;;;;;5109641;28;20184;-92
2022/03/08 03:21:54;;;;;;;53.25;29.55;;;1.50;99.90;;;;;;5094209;28;20408;-92
2022/03/08 03:24:19;;;;;;;57.07;30.43;;;1.40;99.90;;;;;;5093656;28;20173;-92
2022/03/08 03:26:46;;;;;;;53.25;30.13;;;1.40;99.90;;;;;;5093679;28;20983;-92
2022/03/08 03:29:12;;;;;;;65.38;34.10;;;1.40;99.90;;;;;;5094057;28;20271;-92
2022/03/08 03:31:38;;;;;;;67.57;33.65;;;1.40;99.90;;;;;;5094372;28;20216;-91
2022/03/08 03:34:04;;;;;;;61.97;31.05;;;1.40;99.90;;;;;;5103684;28;20176;-92
2022/03/08 03:36:30;;;;;;;74.30;33.83;;;1.40;99.90;;;;;;5093633;28;20234;-91
2022/03/08 03:38:56;;;;;;;78.13;34.47;;;1.30;99.90;;;;;;5093367;28;20180;-91
2022/03/08 03:41:21;;;;;;;73.95;34.05;;;1.30;99.90;;;;;;5093411;28;20408;-91
2022/03/08 03:43:47;;;;;;;59.20;31.50;;;1.30;99.90;;;;;;5093492;28;20176;-91
2022/03/08 03:46:14;;;;;;;60.83;32.30;;;1.40;99.90;;;;;;5100276;28;20452;-93
2022/03/08 03:48:40;;;;;;;59.65;29.70;;;1.40;99.90;;;;;;5096505;28;20187;-91
2022/03/08 03:51:06;;;;;;;63.90;32.63;;;1.40;99.90;;;;;;5093719;28;20231;-91
2022/03/08 03:53:32;;;;;;;63.60;32.20;;;1.30;99.90;;;;;;5093066;28;20239;-92
2022/03/08 03:56:00;;;;;;;58.88;31.85;;;1.30;99.90;;;;;;5092341;28;20197;-91
2022/03/08 03:58:26;;;;;;;56.10;31.00;;;1.30;99.90;;;;;;5092737;28;20242;-92
2022/03/08 04:00:52;;;;;;;49.90;29.10;;;1.40;99.90;;;;;;5096336;28;20200;-91
2022/03/08 04:03:19;;;;;;;52.92;28.75;;;1.40;99.90;;;;;;5103193;28;20204;-91
2022/03/08 04:05:45;;;;;;;52.35;30.00;;;1.40;99.90;;;;;;5096455;28;20197;-92
2022/03/08 04:08:12;;;;;;;52.55;29.02;;;1.40;99.90;;;;;;5093239;28;20180;-91
2022/03/08 04:10:38;;;;;;;43.55;28.92;;;1.40;99.90;;;;;;5093152;28;20202;-92
2022/03/08 04:13:04;;;;;;;50.78;29.10;;;1.40;99.90;;;;;;5092868;28;20232;-91
2022/03/08 04:15:30;;;;;;;50.22;27.10;;;1.50;99.90;;;;;;5103960;28;20189;-90
2022/03/08 04:17:56;;;;;;;46.15;28.10;;;1.40;99.90;;;;;;5094650;28;20721;-92
2022/03/08 04:20:22;;;;;;;58.10;31.17;;;1.40;99.90;;;;;;5095173;28;20200;-92
2022/03/08 04:22:49;;;;;;;51.13;27.50;;;1.40;99.90;;;;;;5093034;28;20176;-92
2022/03/08 04:25:15;;;;;;;41.72;25.88;;;1.40;99.90;;;;;;5093281;28;20267;-92
2022/03/08 04:27:41;;;;;;;46.28;26.00;;;1.40;99.90;;;;;;5093478;28;20214;-91
2022/03/08 04:30:08;;;;;;;49.90;25.83;;;1.40;99.90;;;;;;5106246;28;20204;-92
2022/03/08 04:32:34;;;;;;;50.28;25.27;;;1.40;99.90;;;;;;5094020;28;20519;-92
2022/03/08 04:35:00;;;;;;;47.00;27.00;;;1.40;99.90;;;;;;5093505;28;20274;-90
2022/03/08 04:37:26;;;;;;;42.70;23.77;;;1.50;99.90;;;;;;5093802;28;20425;-90
2022/03/08 04:39:52;;;;;;;45.57;25.80;;;1.50;99.90;;;;;;5096048;28;20407;-92
2022/03/08 04:42:18;;;;;;;54.47;26.65;;;1.50;99.90;;;;;;5093465;28;20429;-90
2022/03/08 04:44:44;;;;;;;48.47;24.42;;;1.60;99.90;;;;;;5093278;28;20231;-91
2022/03/08 04:47:10;;;;;;;42.55;24.00;;;1.60;99.90;;;;;;5101152;28;20228;-92
2022/03/08 04:49:36;;;;;;;43.23;24.30;;;1.60;99.90;;;;;;5102324;28;20235;-92
2022/03/08 04:52:02;;;;;;;41.58;25.60;;;1.60;99.90;;;;;;5093041;28;20219;-90
2022/03/08 04:54:29;;;;;;;43.10;23.15;;;1.70;99.90;;;;;;5092436;28;20196;-92
2022/03/08 04:56:55;;;;;;;41.72;23.42;;;1.70;99.90;;;;;;5093817;28;20192;-93
2022/03/08 04:59:20;;;;;;;38.90;23.80;;;1.70;99.90;;;;;;5094320;28;20173;-90
2022/03/08 05:01:46;;;;;;;38.43;22.63;;;1.70;99.90;;;;;;5092753;28;20638;-90
2022/03/08 05:04:12;;;;;;;46.60;24.23;;;1.70;99.90;;;;;;5098320;28;20413;-91
2022/03/08 05:06:38;;;;;;;39.60;22.13;;;1.70;99.90;;;;;;5093638;28;20748;-93
2022/03/08 05:09:04;;;;;;;36.72;20.60;;;1.80;99.90;;;;;;5096123;28;20267;-92
2022/03/08 05:11:30;;;;;;;43.30;23.30;;;1.90;99.90;;;;;;5097938;28;20208;-90
2022/03/08 05:13:56;;;;;;;34.13;20.00;;;1.90;99.90;;;;;;5096762;28;20992;-90
2022/03/08 05:16:22;;;;;;;37.53;21.27;;;2.00;99.90;;;;;;5096839;28;20923;-90
2022/03/08 05:18:48;;;;;;;34.72;21.90;;;2.00;99.90;;;;;;5106581;28;20173;-87
2022/03/08 05:21:14;;;;;;;40.30;22.10;;;2.00;99.90;;;;;;5097257;28;20185;-88
2022/03/08 05:23:40;;;;;;;34.77;20.83;;;2.10;99.90;;;;;;5087611;28;20180;-88
2022/03/08 05:26:05;;;;;;;36.70;21.87;;;2.10;99.90;;;;;;5088042;28;20196;-88
2022/03/08 05:28:32;;;;;;;34.80;20.60;;;2.10;99.90;;;;;;5096136;28;20821;-90
2022/03/08 05:30:58;;;;;;;35.92;21.08;;;2.10;99.90;;;;;;5097328;28;20551;-88
2022/03/08 05:33:24;;;;;;;40.10;22.50;;;2.10;99.90;;;;;;5100497;28;20204;-88
2022/03/08 05:35:50;;;;;;;33.95;18.90;;;2.10;99.90;;;;;;5093766;28;21064;-88
2022/03/08 05:38:17;;;;;;;35.50;22.48;;;2.10;99.90;;;;;;5093808;28;20181;-90
2022/03/08 05:40:42;;;;;;;34.63;21.98;;;2.10;99.90;;;;;;5087887;28;20192;-87
2022/03/08 05:43:08;;;;;;;34.33;20.98;;;2.00;99.90;;;;;;5091870;28;20180;-87
2022/03/08 05:45:34;;;;;;;33.33;18.90;;;2.00;99.90;;;;;;5077521;28;20564;-87
2022/03/08 05:48:00;;;;;;;38.78;19.70;;;1.90;99.90;;;;;;5059498;28;21038;-90
2022/03/08 05:50:26;;;;;;;35.03;21.03;;;1.80;99.90;;;;;;5060558;28;20204;-91
2022/03/08 05:52:55;;;;;;;31.90;19.97;;;1.70;99.90;;;;;;5061798;28;20224;-90
2022/03/08 05:55:20;;;;;;;40.05;20.80;;;1.60;99.90;;;;;;5062763;28;20434;-88
2022/03/08 05:57:46;;;;;;;30.90;20.17;;;1.50;99.90;;;;;;5088695;28;20186;-90
2022/03/08 06:00:13;;;;;;;38.13;20.67;;;1.50;99.90;;;;;;5084079;28;20207;-89
2022/03/08 06:02:40;;;;;;;32.53;21.67;;;1.40;99.90;;;;;;5060260;28;20453;-90
2022/03/08 06:05:07;;;;;;;30.60;19.90;;;1.40;99.90;;;;;;4988973;28;20845;-89
2022/03/08 06:07:33;;;;;;;30.77;20.33;;;1.30;99.90;;;;;;5054784;28;20732;-89
2022/03/08 06:09:59;;;;;;;43.30;23.98;;;1.30;99.90;;;;;;5056180;28;20203;-91
2022/03/08 06:12:25;;;;;;;39.80;22.05;;;1.30;99.90;;;;;;5092991;28;20227;-91
2022/03/08 06:14:51;;;;;;;38.67;22.92;;;1.30;99.90;;;;;;4981334;28;20219;-91
2022/03/08 06:17:17;;;;;;;32.07;20.73;;;1.40;99.90;;;;;;5056352;28;20657;-89
2022/03/08 06:19:43;;;;;;;29.50;18.03;;;1.40;99.90;;;;;;5058031;28;20554;-91
2022/03/08 06:22:09;;;;;;;31.10;18.47;;;1.40;99.90;;;;;;4978267;28;20432;-89
2022/03/08 06:24:35;;;;;;;26.73;17.33;;;1.60;99.90;;;;;;5057217;28;20203;-89
2022/03/08 06:27:01;;;;;;;29.80;18.30;;;1.70;99.90;;;;;;5097524;28;20197;-89
2022/03/08 06:29:26;;;;;;;33.23;19.50;;;1.80;99.90;;;;;;5080181;28;20497;-90
2022/03/08 06:31:52;;;;;;;34.13;18.60;;;1.90;99.90;;;;;;5009990;28;20492;-90
2022/03/08 06:34:18;;;;;;;32.97;19.17;;;1.90;99.90;;;;;;5005385;28;20222;-90
2022/03/08 06:36:44;;;;;;;29.27;19.60;;;2.00;99.90;;;;;;5061198;28;20429;-91
2022/03/08 06:39:09;;;;;;;28.80;18.10;;;2.00;99.90;;;;;;5065127;28;20179;-89
2022/03/08 06:41:35;;;;;;;34.97;20.47;;;2.10;99.90;;;;;;5080201;28;20561;-91
2022/03/08 06:44:01;;;;;;;27.30;17.70;;;2.10;99.90;;;;;;4990834;28;20176;-90
2022/03/08 06:46:27;;;;;;;29.30;17.85;;;2.10;99.90;;;;;;5078141;28;20563;-91
2022/03/08 06:48:54;;;;;;;29.90;17.20;;;2.10;99.90;;;;;;5012316;28;20203;-91
2022/03/08 06:51:20;;;;;;;36.67;20.27;;;2.20;99.90;;;;;;5008754;28;20407;-91
2022/03/08 06:53:46;;;;;;;31.20;18.30;;;2.30;99.90;;;;;;5068869;28;20264;-90
2022/03/08 06:56:11;;;;;;;40.10;21.33;;;2.40;99.90;;;;;;5085002;28;20419;-91
2022/03/08 06:58:37;;;;;;;31.07;17.90;;;2.50;99.90;;;;;;4995661;28;20404;-91
2022/03/08 07:01:03;;;;;;;29.40;16.30;;;2.60;99.90;;;;;;5065617;28;20868;-91
2022/03/08 07:03:29;;;;;;;27.20;16.83;;;2.70;99.90;;;;;;5004503;28;20528;-91
2022/03/08 07:05:55;;;;;;;25.87;15.93;;;2.80;99.90;;;;;;5011361;28;20501;-91
2022/03/08 07:08:20;;;;;;;24.10;15.50;;;2.90;99.90;;;;;;5095854;28;20421;-90
2022/03/08 07:10:46;;;;;;;23.87;15.70;;;3.10;99.90;;;;;;5084509;28;20230;-90
2022/03/08 07:13:12;;;;;;;22.97;15.80;;;3.20;99.90;;;;;;5050773;28;20226;-91
2022/03/08 07:15:41;;;;;;;21.43;14.03;;;3.30;99.90;;;;;;5086483;28;20206;-90
2022/03/08 07:18:07;;;;;;;25.52;15.50;;;3.50;99.90;;;;;;5100134;28;20171;-88
2022/03/08 07:20:32;;;;;;;23.53;13.70;;;3.60;99.90;;;;;;5072287;28;20214;-90
2022/03/08 07:22:59;;;;;;;21.97;14.27;;;3.70;99.90;;;;;;5087262;28;20179;-92
2022/03/08 07:25:25;;;;;;;23.88;14.07;;;3.80;99.90;;;;;;5064343;28;20444;-94
2022/03/08 07:27:52;;;;;;;21.00;13.85;;;3.90;99.90;;;;;;5088991;28;20172;-93
2022/03/08 07:30:20;;;;;;;24.52;14.20;;;4.00;99.90;;;;;;5083199;28;20211;-93
2022/03/08 07:32:51;;;;;;;18.80;14.02;;;4.10;99.90;;;;;;5084830;28;20243;-93
2022/03/08 07:35:18;;;;;;;21.45;14.18;;;4.30;99.90;;;;;;5067356;28;20206;-93
2022/03/08 07:37:45;;;;;;;22.13;14.32;;;4.50;99.90;;;;;;5078608;28;20210;-94
2022/03/08 07:40:12;;;;;;;18.02;13.63;;;4.70;99.90;;;;;;5066396;28;20207;-93
2022/03/08 07:42:39;;;;;;;19.35;14.27;;;5.00;99.90;;;;;;5072301;28;20192;-93
2022/03/08 07:45:06;;;;;;;21.23;13.38;;;5.20;99.90;;;;;;5071838;28;20438;-94
2022/03/08 07:47:34;;;;;;;17.42;13.02;;;5.40;99.90;;;;;;5069190;28;20253;-93
2022/03/08 07:50:00;;;;;;;23.27;14.80;;;5.50;99.90;;;;;;5066712;28;20267;-93
2022/03/08 07:52:28;;;;;;;20.23;14.02;;;5.70;99.90;;;;;;5078834;28;20219;-93
2022/03/08 07:54:54;;;;;;;20.13;14.13;;;5.80;99.90;;;;;;5062994;28;20242;-93
2022/03/08 07:57:21;;;;;;;23.88;14.43;;;6.00;99.90;;;;;;4978894;28;20187;-93
2022/03/08 07:59:47;;;;;;;24.20;14.90;;;6.10;99.90;;;;;;4975213;28;20337;-92
2022/03/08 08:02:13;;;;;;;20.23;12.80;;;6.20;99.90;;;;;;5066081;28;20179;-90
2022/03/08 08:04:39;;;;;;;23.47;15.50;;;6.40;99.90;;;;;;5077787;28;20222;-92
2022/03/08 08:07:05;;;;;;;22.75;15.60;;;6.50;99.90;;;;;;4999265;28;20184;-92
2022/03/08 08:09:32;;;;;;;19.33;13.97;;;6.60;99.90;;;;;;5057656;28;20214;-92
2022/03/08 08:11:59;;;;;;;22.13;13.20;;;6.60;99.90;;;;;;4989007;28;20535;-90
2022/03/08 08:14:25;;;;;;;26.35;16.38;;;6.70;99.90;;;;;;5073283;28;20234;-90
2022/03/08 08:16:51;;;;;;;22.70;13.35;;;6.70;99.90;;;;;;5074194;28;20194;-92
2022/03/08 08:19:17;;;;;;;22.40;15.55;;;6.70;99.90;;;;;;5074091;28;20191;-92
2022/03/08 08:21:43;;;;;;;21.27;13.60;;;6.60;99.90;;;;;;5008177;28;20203;-92
2022/03/08 08:24:09;;;;;;;24.48;14.52;;;6.60;99.90;;;;;;5064589;28;20184;-92
2022/03/08 08:26:35;;;;;;;20.57;14.33;;;6.50;99.90;;;;;;5069172;28;20236;-92
2022/03/08 08:29:01;;;;;;;27.95;17.15;;;6.50;99.90;;;;;;5071532;28;20187;-93
2022/03/08 08:31:30;;;;;;;21.65;14.32;;;6.40;99.90;;;;;;5076484;28;20271;-92
2022/03/08 08:33:55;;;;;;;20.95;14.07;;;6.30;99.90;;;;;;5080540;28;20248;-92
2022/03/08 08:36:22;;;;;;;21.60;17.03;;;6.30;99.90;;;;;;4998494;28;20214;-92
2022/03/08 08:38:47;;;;;;;22.77;15.70;;;6.30;99.90;;;;;;4999785;28;20410;-90
2022/03/08 08:41:13;;;;;;;21.58;15.45;;;6.30;99.90;;;;;;5075429;28;20207;-93
2022/03/08 08:43:39;;;;;;;20.50;14.40;;;6.40;99.90;;;;;;5073016;28;20194;-93
2022/03/08 08:46:05;;;;;;;21.37;14.40;;;6.50;99.90;;;;;;5075665;28;20851;-93
2022/03/08 08:48:31;;;;;;;20.07;15.27;;;6.60;99.90;;;;;;5081472;28;20790;-90
2022/03/08 08:50:57;;;;;;;23.27;14.47;;;6.70;99.90;;;;;;5077223;28;20226;-93
2022/03/08 08:53:23;;;;;;;23.50;15.50;;;6.90;99.90;;;;;;5062511;28;20223;-93
2022/03/08 08:55:50;;;;;;;21.38;13.52;;;7.10;99.90;;;;;;4994019;28;20207;-93
2022/03/08 08:58:16;;;;;;;19.48;13.45;;;7.60;99.90;;;;;;5085946;28;20180;-93
2022/03/08 09:00:42;;;;;;;22.27;15.07;;;8.30;99.90;;;;;;5085049;28;20243;-93
2022/03/08 09:03:14;;;;;;;17.60;13.33;;;8.90;99.80;;;;;;5020572;28;20176;-92
2022/03/08 09:05:44;;;;;;;19.02;13.85;;;9.40;99.10;;;;;;4997793;28;20479;-90
2022/03/08 09:08:11;;;;;;;18.42;13.75;;;10.00;98.10;;;;;;5080335;28;20660;-92
2022/03/08 09:10:37;;;;;;;20.85;15.18;;;10.30;96.90;;;;;;4998005;28;20595;-92
2022/03/08 09:13:05;;;;;;;21.88;15.23;;;10.40;96.40;;;;;;5092637;28;20588;-90
2022/03/08 09:15:31;;;;;;;19.17;14.73;;;10.40;95.90;;;;;;5059767;28;20200;-93
2022/03/08 09:17:57;;;;;;;19.20;14.68;;;10.40;95.60;;;;;;5002516;28;20188;-90
2022/03/08 09:20:26;;;;;;;19.00;13.90;;;10.30;95.70;;;;;;5059148;28;20302;-89
2022/03/08 09:22:54;;;;;;;20.80;13.13;;;10.10;95.10;;;;;;5072356;28;20182;-89
2022/03/08 09:25:21;;;;;;;16.85;13.60;;;10.10;95.50;;;;;;5072541;28;20211;-90
2022/03/08 09:27:46;;;;;;;17.90;13.02;;;10.20;94.90;;;;;;5060769;28;20277;-89
2022/03/08 09:30:13;;;;;;;19.87;13.57;;;10.20;94.40;;;;;;5071621;28;20279;-90
2022/03/08 09:32:39;;;;;;;18.08;12.70;;;10.10;94.30;;;;;;5070796;28;20472;-88
2022/03/08 09:35:06;;;;;;;16.70;12.10;;;10.00;94.20;;;;;;4996716;28;20203;-87
2022/03/08 09:37:31;;;;;;;14.32;9.35;;;9.90;94.10;;;;;;4993827;28;20625;-92
2022/03/08 09:39:57;;;;;;;17.60;12.57;;;9.70;94.20;;;;;;5074614;28;20195;-86
2022/03/08 09:42:23;;;;;;;16.80;13.40;;;9.50;94.30;;;;;;5009947;28;20701;-87
2022/03/08 09:44:49;;;;;;;19.17;12.97;;;9.40;95.30;;;;;;5002404;28;20446;-87
2022/03/08 09:47:16;;;;;;;19.80;12.20;;;9.70;95.50;;;;;;5022010;28;20884;-92
2022/03/08 09:49:42;;;;;;;17.70;12.35;;;10.30;94.40;;;;;;5039864;28;20488;-91
2022/03/08 09:52:08;;;;;;;19.70;12.87;;;11.00;93.90;;;;;;5047979;28;20253;-89
2022/03/08 09:54:35;;;;;;;17.98;12.88;;;11.80;92.50;;;;;;5068418;28;20457;-90
2022/03/08 09:57:08;;;;;;;16.38;12.65;;;12.40;91.50;;;;;;5018835;28;20210;-90
2022/03/08 09:59:34;;;;;;;12.07;9.40;;;12.50;90.20;;;;;;5014328;28;20207;-88
2022/03/08 10:02:00;;;;;;;16.53;11.70;;;12.40;89.20;;;;;;5079152;28;20712;-89
2022/03/08 10:04:26;;;;;;;15.97;12.20;;;12.20;88.50;;;;;;5077993;28;20423;-89
2022/03/08 10:06:51;;;;;;;17.03;12.60;;;11.70;87.60;;;;;;5012569;28;20432;-88
2022/03/08 10:09:19;;;;;;;16.83;12.40;;;11.30;88.10;;;;;;5052163;28;20686;-89
2022/03/08 10:11:50;;;;;;;15.23;12.98;;;11.00;89.80;;;;;;4992450;28;20205;-89
2022/03/08 10:14:41;;;;;;;18.42;12.90;;;10.90;90.20;;;;;;5080359;28;20256;-89
2022/03/08 10:17:10;;;;;;;15.15;12.02;;;11.00;90.20;;;;;;5086416;28;20543;-90
2022/03/08 10:19:49;;;;;;;16.08;11.70;;;11.10;89.10;;;;;;5077887;28;20409;-88
2022/03/08 10:22:42;;;;;;;16.38;13.15;;;11.10;89.10;;;;;;5086977;28;20279;-89
2022/03/08 10:25:16;;;;;;;20.52;13.52;;;10.90;89.50;;;;;;5073188;28;20593;-89
2022/03/08 10:28:00;;;;;;;18.45;13.30;;;10.80;89.10;;;;;;5083743;28;20323;-90
2022/03/08 10:30:44;;;;;;;19.23;13.63;;;10.40;89.60;;;;;;5009709;28;20235;-89
2022/03/08 10:33:11;;;;;;;19.67;13.50;;;10.10;90.20;;;;;;5090672;28;20218;-90
2022/03/08 10:35:42;;;;;;;20.58;14.30;;;9.90;90.60;;;;;;5078687;28;20672;-89
2022/03/08 10:38:13;;;;;;;18.55;14.25;;;9.60;91.40;;;;;;5036037;28;20536;-91
2022/03/08 10:40:41;;;;;;;20.05;13.88;;;9.50;91.60;;;;;;5022816;28;20236;-88
2022/03/08 10:43:09;;;;;;;20.25;13.82;;;9.50;91.20;;;;;;5086289;28;20176;-93
2022/03/08 10:45:42;;;;;;;16.25;11.93;;;9.40;90.70;;;;;;5079206;28;20695;-93
2022/03/08 10:48:09;;;;;;;18.45;12.27;;;9.30;91.40;;;;;;5016720;28;20492;-91
2022/03/08 10:50:38;;;;;;;19.15;12.95;;;9.30;91.30;;;;;;5080112;28;20213;-91
2022/03/08 10:53:06;;;;;;;15.07;11.70;;;9.40;91.30;;;;;;5080176;28;20222;-87
2022/03/08 10:55:34;;;;;;;24.23;10.75;;;9.50;91.40;;;;;;5078808;28;20199;-87
2022/03/08 10:58:06;;;;;;;20.10;13.07;;;9.60;91.90;;;;;;5074594;28;20207;-90
2022/03/08 11:00:37;;;;;;;17.52;12.77;;;9.70;91.40;;;;;;5059384;28;20807;-89
2022/03/08 11:03:08;;;;;;;19.90;14.75;;;9.80;92.80;;;;;;5087890;28;20184;-88
2022/03/08 11:05:39;;;;;;;15.07;11.93;;;9.80;91.80;;;;;;5070142;28;20680;-89
2022/03/08 11:08:07;;;;;;;15.20;10.43;;;9.80;91.90;;;;;;5001671;28;20222;-90
2022/03/08 11:10:33;;;;;;;19.98;9.35;;;9.90;91.50;;;;;;5009103;28;20223;-89
2022/03/08 11:13:02;;;;;;;16.42;12.75;;;10.10;90.90;;;;;;5021617;28;20214;-89
2022/03/08 11:15:32;;;;;;;13.55;10.50;;;10.10;90.80;;;;;;5065250;28;20570;-90
2022/03/08 11:18:01;;;;;;;13.85;9.77;;;10.20;90.70;;;;;;5078759;28;20175;-92
2022/03/08 11:20:31;;;;;;;19.73;10.43;;;10.30;89.80;;;;;;5065150;28;20242;-88
2022/03/08 11:23:00;;;;;;;16.65;9.65;;;10.30;89.20;;;;;;5076795;28;20240;-88
2022/03/08 11:25:32;;;;;;;11.20;8.80;;;10.40;88.90;;;;;;4999393;28;20692;-88
2022/03/08 11:28:00;;;;;;;8.18;6.38;;;10.40;87.80;;;;;;5071482;28;20176;-90
2022/03/08 11:30:33;;;;;;;8.18;6.90;;;10.40;85.70;;;;;;5012169;28;20235;-93
2022/03/08 11:33:06;;;;;;;12.30;8.30;;;10.40;84.90;;;;;;5075481;28;20232;-93
2022/03/08 11:35:40;;;;;;;11.50;7.97;;;10.50;86.60;;;;;;5075338;28;20242;-92
2022/03/08 11:38:13;;;;;;;11.98;9.20;;;10.60;85.90;;;;;;5009703;28;20178;-93
2022/03/08 11:40:46;;;;;;;8.30;6.13;;;10.70;86.00;;;;;;5086506;28;20194;-92
2022/03/08 11:43:15;;;;;;;7.50;5.47;;;10.80;85.10;;;;;;5070094;28;20188;-92
2022/03/08 11:45:42;;;;;;;7.00;5.50;;;10.70;81.40;;;;;;5065637;28;20699;-93
2022/03/08 11:48:09;;;;;;;7.38;5.40;;;10.60;79.80;;;;;;5052361;28;20191;-91
2022/03/08 11:50:46;;;;;;;9.30;6.43;;;10.60;79.40;;;;;;5074552;28;20238;-93
2022/03/08 11:53:15;;;;;;;10.95;6.75;;;10.40;80.80;;;;;;5063482;28;20250;-92
2022/03/08 11:55:44;;;;;;;14.05;6.25;;;10.30;81.60;;;;;;5070289;28;20199;-91
2022/03/08 11:58:13;;;;;;;10.60;6.93;;;10.30;90.00;;;;;;5066053;28;20186;-89
2022/03/08 12:00:45;;;;;;;8.68;6.82;;;10.10;82.90;;;;;;5065321;28;20561;-90
2022/03/08 12:03:31;;;;;;;10.55;7.65;;;9.90;82.00;;;;;;5080760;28;20212;-91
2022/03/08 12:06:11;;;;;;;12.40;7.93;;;9.70;82.10;;;;;;5003676;28;20223;-90
2022/03/08 12:08:42;;;;;;;11.25;7.40;;;9.60;83.30;;;;;;5072780;28;20183;-90
2022/03/08 12:11:32;;;;;;;9.98;7.40;;;9.40;84.40;;;;;;5076463;28;20206;-89
2022/03/08 12:14:08;;;;;;;10.13;7.82;;;9.30;85.50;;;;;;5067191;28;20216;-90
2022/03/08 12:16:35;;;;;;;8.48;7.10;;;9.20;85.30;;;;;;5064327;28;20176;-89
2022/03/08 12:19:03;;;;;;;10.90;7.13;;;9.10;85.00;;;;;;5069259;28;20579;-89
2022/03/08 12:21:41;;;;;;;8.50;7.40;;;9.10;85.10;;;;;;5071764;28;20191;-90
2022/03/08 12:24:18;;;;;;;10.40;6.30;;;9.10;85.50;;;;;;5006130;28;20291;-90
2022/03/08 12:27:03;;;;;;;6.32;4.75;;;9.10;83.50;;;;;;5084966;28;20179;-90
2022/03/08 12:29:50;;;;;;;6.32;5.03;;;9.20;83.90;;;;;;5079859;28;20195;-90
2022/03/08 12:32:32;;;;;;;4.10;3.05;;;9.30;89.60;;;;;;5086288;28;20211;-90
2022/03/08 12:35:09;;;;;;;6.00;3.28;;;9.40;90.40;;;;;;5069738;28;20214;-91
2022/03/08 12:37:49;;;;;;;10.02;3.70;;;9.40;91.40;;;;;;5074613;28;20194;-94